createdAt,value
2023-03-15T00:01:47.675Z,99722.75
2023-03-15T00:04:14.540Z,99730.16
2023-03-15T00:06:41.210Z,99727.09
2023-03-15T00:09:08.345Z,99733.53
2023-03-15T00:11:34.974Z,99734.16
2023-03-15T00:14:02.586Z,99729.13
2023-03-15T00:16:29.420Z,99734.91
2023-03-15T00:18:56.728Z,99740.38
2023-03-15T00:21:23.713Z,99729.97
2023-03-15T00:23:50.876Z,99733.31
2023-03-15T00:26:17.902Z,99751.16
2023-03-15T00:28:44.732Z,99746.41
2023-03-15T00:31:25.839Z,99745.13
2023-03-15T00:33:56.340Z,99753.84
2023-03-15T00:36:24.233Z,99761.38
2023-03-15T00:38:53.357Z,99755.72
2023-03-15T00:41:21.879Z,99756.06
2023-03-15T00:43:49.004Z,99765.28
2023-03-15T00:46:16.663Z,99749.66
2023-03-15T00:48:43.677Z,99761.09
2023-03-15T00:51:13.337Z,99765.81
2023-03-15T00:53:42.571Z,99761.34
2023-03-15T00:56:12.720Z,99764.03
2023-03-15T00:58:40.100Z,99766.91
2023-03-15T01:01:16.777Z,99770.91
2023-03-15T01:03:44.228Z,99767.19
2023-03-15T01:06:14.262Z,99774.81
2023-03-15T01:08:41.681Z,99774.50
2023-03-15T01:11:11.763Z,99785.44
2023-03-15T01:13:40.210Z,99787.53
2023-03-15T01:16:08.749Z,99791.38
2023-03-15T01:18:35.408Z,99780.75
2023-03-15T01:21:02.157Z,99786.28
2023-03-15T01:23:28.889Z,99789.25
2023-03-15T01:25:55.489Z,99809.78
2023-03-15T01:28:22.101Z,99824.63
2023-03-15T01:30:50.640Z,99823.31
2023-03-15T01:33:17.276Z,99820.69
2023-03-15T01:35:44.550Z,99825.72
2023-03-15T01:38:11.652Z,99829.97
2023-03-15T01:40:46.084Z,99822.72
2023-03-15T01:43:21.745Z,99831.28
2023-03-15T01:46:12.941Z,99827.09
2023-03-15T01:49:15.136Z,99832.56
2023-03-15T01:52:13.829Z,99830.31
2023-03-15T01:54:46.272Z,99825.00
2023-03-15T01:57:25.593Z,99820.25
2023-03-15T01:59:58.935Z,99816.41
2023-03-15T02:02:26.441Z,99818.75
2023-03-15T02:04:59.720Z,99814.41
2023-03-15T02:07:29.078Z,99809.69
2023-03-15T02:10:14.626Z,99811.41
2023-03-15T02:12:46.461Z,99809.72
2023-03-15T02:15:14.444Z,99815.88
2023-03-15T02:17:44.489Z,99819.38
2023-03-15T02:20:14.597Z,99808.75
2023-03-15T02:22:56.853Z,99820.53
2023-03-15T02:26:01.093Z,99834.72
2023-03-15T02:28:28.503Z,99830.81
2023-03-15T02:30:55.351Z,99827.66
2023-03-15T02:33:34.445Z,99831.66
2023-03-15T02:36:18.242Z,99824.28
2023-03-15T02:38:44.945Z,99817.25
2023-03-15T02:41:12.448Z,99817.44
2023-03-15T02:43:40.828Z,99828.69
2023-03-15T02:46:08.147Z,99833.38
2023-03-15T02:48:36.261Z,99835.06
2023-03-15T02:51:02.864Z,99824.53
2023-03-15T02:53:32.574Z,99828.22
2023-03-15T02:55:59.694Z,99833.13
2023-03-15T02:58:26.387Z,99831.22
2023-03-15T03:00:53.952Z,99825.66
2023-03-15T03:03:21.148Z,99832.41
2023-03-15T03:05:47.897Z,99842.22
2023-03-15T03:08:16.492Z,99853.81
2023-03-15T03:10:43.420Z,99852.47
2023-03-15T03:13:10.170Z,99851.28
2023-03-15T03:15:36.937Z,99857.19
2023-03-15T03:18:03.928Z,99859.03
2023-03-15T03:20:30.565Z,99860.25
2023-03-15T03:22:57.239Z,99863.25
2023-03-15T03:25:27.368Z,99867.28
2023-03-15T03:27:57.266Z,99855.06
2023-03-15T03:30:24.604Z,99854.22
2023-03-15T03:32:51.317Z,99852.91
2023-03-15T03:35:18.202Z,99862.44
2023-03-15T03:37:45.121Z,99858.75
2023-03-15T03:40:12.501Z,99858.94
2023-03-15T03:42:39.198Z,99852.06
2023-03-15T03:45:08.033Z,99853.56
2023-03-15T03:47:34.687Z,99851.19
2023-03-15T03:50:01.487Z,99850.72
2023-03-15T03:52:28.757Z,99857.09
2023-03-15T03:54:55.404Z,99845.88
2023-03-15T03:57:22.040Z,99848.06
2023-03-15T03:59:48.673Z,99857.16
2023-03-15T04:02:15.388Z,99857.78
2023-03-15T04:04:42.240Z,99856.09
2023-03-15T04:07:08.961Z,99848.06
2023-03-15T04:09:38.668Z,99853.44
2023-03-15T04:12:06.527Z,99854.78
2023-03-15T04:14:33.560Z,99844.03
2023-03-15T04:17:00.166Z,99845.19
2023-03-15T04:19:27.204Z,99848.25
2023-03-15T04:21:53.852Z,99850.06
2023-03-15T04:24:20.577Z,99845.06
2023-03-15T04:26:47.200Z,99849.06
2023-03-15T04:29:15.306Z,99850.59
2023-03-15T04:31:43.393Z,99849.09
2023-03-15T04:34:10.167Z,99849.09
2023-03-15T04:36:36.831Z,99846.91
2023-03-15T04:39:07.504Z,99848.78
2023-03-15T04:41:34.913Z,99852.13
2023-03-15T04:44:05.110Z,99851.78
2023-03-15T04:46:34.023Z,99855.50
2023-03-15T04:49:01.200Z,99862.88
2023-03-15T04:51:27.805Z,99858.53
2023-03-15T04:53:54.493Z,99852.81
2023-03-15T04:56:21.114Z,99867.94
2023-03-15T04:58:47.710Z,99863.75
2023-03-15T05:01:14.399Z,99852.50
2023-03-15T05:03:41.093Z,99852.69
2023-03-15T05:06:10.648Z,99861.22
2023-03-15T05:08:37.530Z,99858.88
2023-03-15T05:11:05.103Z,99865.09
2023-03-15T05:13:31.807Z,99873.31
2023-03-15T05:15:58.504Z,99862.94
2023-03-15T05:18:25.144Z,99872.47
2023-03-15T05:20:51.835Z,99874.84
2023-03-15T05:23:18.443Z,99883.75
2023-03-15T05:25:54.035Z,99887.13
2023-03-15T05:28:24.816Z,99888.47
2023-03-15T05:30:52.523Z,99888.78
2023-03-15T05:33:20.006Z,99891.47
2023-03-15T05:35:47.399Z,99896.34
2023-03-15T05:38:14.704Z,99889.47
2023-03-15T05:40:45.564Z,99889.97
2023-03-15T05:43:12.837Z,99898.19
2023-03-15T05:45:40.000Z,99896.19
2023-03-15T05:48:06.825Z,99890.13
2023-03-15T05:50:33.867Z,99888.13
2023-03-15T05:53:00.467Z,99895.00
2023-03-15T05:55:27.318Z,99890.81
2023-03-15T05:57:53.947Z,99899.53
2023-03-15T06:00:20.931Z,99894.84
2023-03-15T06:02:47.725Z,99910.63
2023-03-15T06:05:14.431Z,99909.97
2023-03-15T06:07:41.064Z,99898.88
2023-03-15T06:10:08.136Z,99899.53
2023-03-15T06:12:34.776Z,99903.91
2023-03-15T06:15:01.359Z,99901.06
2023-03-15T06:17:27.988Z,99892.81
2023-03-15T06:19:54.571Z,99892.31
2023-03-15T06:22:21.197Z,99898.31
2023-03-15T06:24:47.814Z,99900.00
2023-03-15T06:27:14.413Z,99902.19
2023-03-15T06:29:41.040Z,99904.53
2023-03-15T06:32:08.005Z,99905.84
2023-03-15T06:34:34.781Z,99915.22
2023-03-15T06:37:01.458Z,99916.56
2023-03-15T06:39:28.124Z,99920.91
2023-03-15T06:41:58.429Z,99920.56
2023-03-15T06:44:25.233Z,99920.34
2023-03-15T06:46:51.824Z,99926.72
2023-03-15T06:49:18.477Z,99923.44
2023-03-15T06:51:45.485Z,99926.47
2023-03-15T06:54:12.244Z,99930.47
2023-03-15T06:56:39.033Z,99929.59
2023-03-15T06:59:05.950Z,99935.66
2023-03-15T07:01:32.639Z,99929.72
2023-03-15T07:03:59.339Z,99929.69
2023-03-15T07:06:27.626Z,99936.06
2023-03-15T07:08:54.615Z,99932.28
2023-03-15T07:11:21.225Z,99927.69
2023-03-15T07:13:47.788Z,99927.81
2023-03-15T07:16:14.527Z,99924.56
2023-03-15T07:18:41.189Z,99926.19
2023-03-15T07:21:08.193Z,99924.28
2023-03-15T07:23:34.821Z,99927.53
2023-03-15T07:26:01.728Z,99916.06
2023-03-15T07:28:29.143Z,99911.59
2023-03-15T07:30:56.804Z,99907.16
2023-03-15T07:33:25.412Z,99902.03
2023-03-15T07:35:53.735Z,99899.91
2023-03-15T07:38:24.639Z,99891.75
2023-03-15T07:40:51.687Z,99900.94
2023-03-15T07:43:18.800Z,99892.97
2023-03-15T07:45:45.429Z,99890.91
2023-03-15T07:48:12.120Z,99891.44
2023-03-15T07:50:39.306Z,99894.47
2023-03-15T07:53:06.181Z,99894.06
2023-03-15T07:55:33.713Z,99892.09
2023-03-15T07:58:00.775Z,99887.75
2023-03-15T08:00:28.221Z,99901.97
2023-03-15T08:02:55.491Z,99896.66
2023-03-15T08:05:22.507Z,99890.88
2023-03-15T08:07:49.531Z,99895.25
2023-03-15T08:10:17.723Z,99905.88
2023-03-15T08:12:44.863Z,99895.53
2023-03-15T08:15:16.033Z,99900.34
2023-03-15T08:17:45.511Z,99904.81
2023-03-15T08:20:17.869Z,99900.34
2023-03-15T08:22:51.672Z,99902.91
2023-03-15T08:25:23.636Z,99904.66
2023-03-15T08:27:51.386Z,99917.03
2023-03-15T08:30:21.044Z,99909.19
2023-03-15T08:32:52.632Z,99902.03
2023-03-15T08:35:22.034Z,99906.28
2023-03-15T08:37:49.482Z,99904.72
2023-03-15T08:40:19.310Z,99899.59
2023-03-15T08:42:46.628Z,99905.25
2023-03-15T08:45:13.711Z,99901.63
2023-03-15T08:47:40.458Z,99902.31
2023-03-15T08:50:11.649Z,99903.00
2023-03-15T08:52:39.610Z,99895.97
2023-03-15T08:55:07.253Z,99895.81
2023-03-15T08:57:34.406Z,99896.72
2023-03-15T09:00:02.493Z,99895.22
2023-03-15T09:02:29.203Z,99889.06
2023-03-15T09:04:55.905Z,99884.69
2023-03-15T09:07:22.548Z,99887.41
2023-03-15T09:09:49.229Z,99897.03
2023-03-15T09:12:17.127Z,99903.56
2023-03-15T09:14:44.465Z,99898.78
2023-03-15T09:17:11.872Z,99905.09
2023-03-15T09:19:39.267Z,99900.72
2023-03-15T09:22:16.547Z,99908.63
2023-03-15T09:24:51.760Z,99913.81
2023-03-15T09:27:18.995Z,99908.03
2023-03-15T09:29:45.692Z,99905.16
2023-03-15T09:32:12.457Z,99908.31
2023-03-15T09:34:41.966Z,99914.34
2023-03-15T09:37:09.422Z,99920.19
2023-03-15T09:39:36.192Z,99925.03
2023-03-15T09:42:08.439Z,99924.41
2023-03-15T09:44:45.823Z,99921.50
2023-03-15T09:47:34.356Z,99922.16
2023-03-15T09:50:19.916Z,99931.16
2023-03-15T09:52:51.283Z,99921.13
2023-03-15T09:55:26.721Z,99913.22
2023-03-15T09:58:02.606Z,99921.13
2023-03-15T10:00:44.109Z,99928.00
2023-03-15T10:03:27.314Z,99931.38
2023-03-15T10:06:02.351Z,99933.31
2023-03-15T10:08:29.714Z,99933.75
2023-03-15T10:11:11.526Z,99920.84
2023-03-15T10:13:57.454Z,99930.03
2023-03-15T10:16:24.116Z,99927.09
2023-03-15T10:19:02.049Z,99921.06
2023-03-15T10:21:49.075Z,99907.88
2023-03-15T10:24:24.693Z,99918.31
2023-03-15T10:26:53.741Z,99922.72
2023-03-15T10:29:24.938Z,99918.75
2023-03-15T10:31:54.417Z,99910.00
2023-03-15T10:34:22.179Z,99904.53
2023-03-15T10:36:54.260Z,99903.31
2023-03-15T10:39:22.828Z,99899.75
2023-03-15T10:41:50.703Z,99901.22
2023-03-15T10:44:19.202Z,99902.66
2023-03-15T10:47:22.558Z,99892.63
2023-03-15T10:49:50.809Z,99892.00
2023-03-15T10:52:40.001Z,99890.09
2023-03-15T10:55:15.968Z,99888.22
2023-03-15T10:57:55.041Z,99878.19
2023-03-15T11:00:29.528Z,99879.84
2023-03-15T11:03:23.960Z,99872.94
2023-03-15T11:05:53.353Z,99877.34
2023-03-15T11:08:25.886Z,99872.72
2023-03-15T11:10:59.234Z,99873.13
2023-03-15T11:13:31.646Z,99871.03
2023-03-15T11:16:19.842Z,99867.25
2023-03-15T11:18:48.998Z,99865.78
2023-03-15T11:21:17.607Z,99858.88
2023-03-15T11:23:47.995Z,99856.75
2023-03-15T11:26:39.436Z,99866.34
2023-03-15T11:29:14.956Z,99861.72
2023-03-15T11:31:41.628Z,99859.19
2023-03-15T11:34:15.796Z,99854.63
2023-03-15T11:36:49.066Z,99860.44
2023-03-15T11:39:34.077Z,99858.34
2023-03-15T11:42:11.095Z,99859.97
2023-03-15T11:44:45.925Z,99849.72
2023-03-15T11:47:31.465Z,99843.88
2023-03-15T11:49:59.187Z,99843.00
2023-03-15T11:52:28.776Z,99839.84
2023-03-15T11:54:58.567Z,99836.97
2023-03-15T11:57:40.562Z,99838.19
2023-03-15T12:00:21.876Z,99842.34
2023-03-15T12:02:57.119Z,99838.06
2023-03-15T12:05:42.427Z,99841.75
2023-03-15T12:08:41.330Z,99825.34
2023-03-15T12:11:33.799Z,99829.16
2023-03-15T12:14:01.737Z,99825.69
2023-03-15T12:16:30.893Z,99831.44
2023-03-15T12:18:59.105Z,99816.81
2023-03-15T12:21:54.622Z,99821.78
2023-03-15T12:24:27.293Z,99835.19
2023-03-15T12:27:15.379Z,99821.94
2023-03-15T12:29:45.931Z,99830.59
2023-03-15T12:32:18.060Z,99821.13
2023-03-15T12:34:58.248Z,99820.69
2023-03-15T12:37:39.331Z,99819.28
2023-03-15T12:40:15.252Z,99815.50
2023-03-15T12:42:42.054Z,99814.69
2023-03-15T12:45:18.053Z,99809.63
2023-03-15T12:47:45.398Z,99810.47
2023-03-15T12:50:46.198Z,99812.19
2023-03-15T12:53:31.139Z,99805.09
2023-03-15T12:56:12.871Z,99803.91
2023-03-15T12:58:41.850Z,99798.28
2023-03-15T13:01:16.181Z,99803.25
2023-03-15T13:03:43.714Z,99797.22
2023-03-15T13:06:24.652Z,99793.06
2023-03-15T13:09:03.582Z,99789.06
2023-03-15T13:11:40.795Z,99785.28
2023-03-15T13:14:38.538Z,99786.63
2023-03-15T13:17:17.169Z,99788.94
2023-03-15T13:19:46.758Z,99781.59
2023-03-15T13:22:41.335Z,99769.88
2023-03-15T13:25:42.726Z,99773.94
2023-03-15T13:28:27.906Z,99765.03
2023-03-15T13:30:56.081Z,99764.56
2023-03-15T13:33:31.821Z,99765.13
2023-03-15T13:36:02.157Z,99757.09
2023-03-15T13:38:37.998Z,99756.97
2023-03-15T13:41:07.062Z,99756.38
2023-03-15T13:43:39.189Z,99749.00
2023-03-15T13:46:06.216Z,99746.50
2023-03-15T13:48:35.821Z,99743.63
2023-03-15T13:51:31.870Z,99737.13
2023-03-15T13:54:16.690Z,99728.63
2023-03-15T13:57:05.079Z,99729.66
2023-03-15T13:59:38.695Z,99724.78
2023-03-15T14:02:07.126Z,99718.56
2023-03-15T14:04:38.309Z,99723.19
2023-03-15T14:07:22.774Z,99718.88
2023-03-15T14:09:49.482Z,99708.19
2023-03-15T14:12:23.197Z,99701.47
2023-03-15T14:14:53.828Z,99699.81
2023-03-15T14:17:28.744Z,99696.63
2023-03-15T14:20:06.914Z,99702.75
2023-03-15T14:22:35.899Z,99690.16
2023-03-15T14:25:04.351Z,99696.78
2023-03-15T14:27:33.396Z,99694.25
2023-03-15T14:30:02.770Z,99687.94
2023-03-15T14:32:31.237Z,99677.53
2023-03-15T14:35:19.416Z,99678.75
2023-03-15T14:37:46.482Z,99674.28
2023-03-15T14:40:21.949Z,99675.94
2023-03-15T14:42:50.874Z,99672.25
2023-03-15T14:45:18.795Z,99664.69
2023-03-15T14:47:59.072Z,99667.09
2023-03-15T14:50:29.336Z,99659.69
2023-03-15T14:52:57.577Z,99661.41
2023-03-15T14:55:28.500Z,99664.09
2023-03-15T14:57:55.740Z,99660.53
2023-03-15T15:00:22.582Z,99652.13
2023-03-15T15:02:54.485Z,99652.56
2023-03-15T15:05:34.476Z,99655.75
2023-03-15T15:08:12.901Z,99642.75
2023-03-15T15:10:45.774Z,99638.66
2023-03-15T15:13:23.441Z,99638.50
2023-03-15T15:15:56.018Z,99634.88
2023-03-15T15:18:25.837Z,99634.56
2023-03-15T15:20:55.797Z,99627.41
2023-03-15T15:23:27.533Z,99619.84
2023-03-15T15:25:57.986Z,99617.38
2023-03-15T15:28:34.893Z,99623.09
2023-03-15T15:31:04.363Z,99613.03
2023-03-15T15:33:31.713Z,99605.41
2023-03-15T15:35:58.957Z,99599.50
2023-03-15T15:38:34.944Z,99595.91
2023-03-15T15:41:01.664Z,99599.13
2023-03-15T15:43:30.442Z,99589.06
2023-03-15T15:45:58.530Z,99589.75
2023-03-15T15:48:25.215Z,99585.13
2023-03-15T15:50:51.855Z,99589.22
2023-03-15T15:53:18.646Z,99572.34
2023-03-15T15:55:46.037Z,99572.44
2023-03-15T15:58:14.512Z,99576.69
2023-03-15T16:00:41.207Z,99576.06
2023-03-15T16:03:17.268Z,99566.00
2023-03-15T16:05:44.243Z,99557.25
2023-03-15T16:08:25.635Z,99565.03
2023-03-15T16:10:52.280Z,99563.00
2023-03-15T16:13:18.889Z,99554.22
2023-03-15T16:15:45.850Z,99554.09
2023-03-15T16:18:12.983Z,99541.06
2023-03-15T16:20:41.357Z,99545.16
2023-03-15T16:23:17.257Z,99545.41
2023-03-15T16:25:47.706Z,99540.16
2023-03-15T16:28:14.348Z,99546.06
2023-03-15T16:30:41.275Z,99530.72
2023-03-15T16:33:16.342Z,99523.75
2023-03-15T16:35:45.322Z,99526.69
2023-03-15T16:38:17.672Z,99526.63
2023-03-15T16:40:45.654Z,99519.59
2023-03-15T16:43:13.891Z,99521.50
2023-03-15T16:45:41.072Z,99517.69
2023-03-15T16:48:07.877Z,99509.53
2023-03-15T16:50:35.135Z,99512.88
2023-03-15T16:53:05.604Z,99506.81
2023-03-15T16:55:34.552Z,99505.78
2023-03-15T16:58:04.436Z,99494.28
2023-03-15T17:00:31.772Z,99490.50
2023-03-15T17:03:01.681Z,99490.28
2023-03-15T17:05:29.756Z,99491.94
2023-03-15T17:07:57.954Z,99488.97
2023-03-15T17:10:31.134Z,99486.75
2023-03-15T17:13:02.342Z,99481.28
2023-03-15T17:15:30.539Z,99484.00
2023-03-15T17:17:57.730Z,99475.69
2023-03-15T17:20:29.438Z,99482.19
2023-03-15T17:23:04.098Z,99476.31
2023-03-15T17:25:31.827Z,99472.06
2023-03-15T17:28:00.275Z,99468.97
2023-03-15T17:30:33.318Z,99466.25
2023-03-15T17:33:00.775Z,99466.63
2023-03-15T17:35:30.839Z,99464.34
2023-03-15T17:37:58.191Z,99463.16
2023-03-15T17:40:30.626Z,99464.78
2023-03-15T17:42:59.791Z,99460.81
2023-03-15T17:45:34.503Z,99458.31
2023-03-15T17:48:02.502Z,99455.13
2023-03-15T17:50:31.794Z,99465.88
2023-03-15T17:53:01.717Z,99460.81
2023-03-15T17:55:29.952Z,99459.84
2023-03-15T17:57:58.002Z,99454.38
2023-03-15T18:00:25.703Z,99458.75
2023-03-15T18:02:55.852Z,99450.69
2023-03-15T18:05:27.009Z,99446.91
2023-03-15T18:07:58.961Z,99443.38
2023-03-15T18:10:32.008Z,99441.25
2023-03-15T18:12:58.638Z,99443.22
2023-03-15T18:15:25.250Z,99442.53
2023-03-15T18:17:52.160Z,99432.94
2023-03-15T18:20:22.170Z,99434.38
2023-03-15T18:22:49.190Z,99436.03
2023-03-15T18:25:26.027Z,99448.34
2023-03-15T18:27:53.227Z,99434.72
2023-03-15T18:30:23.341Z,99434.13
2023-03-15T18:32:51.513Z,99437.44
2023-03-15T18:35:27.238Z,99433.31
2023-03-15T18:37:56.105Z,99426.22
2023-03-15T18:40:24.528Z,99429.53
2023-03-15T18:42:51.564Z,99424.47
2023-03-15T18:45:21.972Z,99419.22
2023-03-15T18:47:49.117Z,99418.19
2023-03-15T18:50:17.397Z,99404.34
2023-03-15T18:52:44.697Z,99409.78
2023-03-15T18:55:12.917Z,99406.47
2023-03-15T18:57:41.593Z,99398.31
2023-03-15T19:00:14.218Z,99401.38
2023-03-15T19:02:43.256Z,99398.09
2023-03-15T19:05:11.854Z,99394.53
2023-03-15T19:07:39.564Z,99396.19
2023-03-15T19:10:09.488Z,99392.88
2023-03-15T19:12:37.022Z,99392.25
2023-03-15T19:15:05.710Z,99391.06
2023-03-15T19:17:32.666Z,99396.50
2023-03-15T19:19:59.300Z,99403.38
2023-03-15T19:22:29.139Z,99388.28
2023-03-15T19:24:55.734Z,99380.78
2023-03-15T19:27:22.484Z,99373.84
2023-03-15T19:29:49.847Z,99368.84
2023-03-15T19:32:17.299Z,99368.22
2023-03-15T19:34:44.302Z,99367.66
2023-03-15T19:37:10.949Z,99362.59
2023-03-15T19:39:37.987Z,99360.31
2023-03-15T19:42:05.028Z,99352.59
2023-03-15T19:44:32.362Z,99348.84
2023-03-15T19:46:58.968Z,99345.50
2023-03-15T19:49:25.591Z,99331.09
2023-03-15T19:51:52.296Z,99336.06
2023-03-15T19:54:18.973Z,99326.25
2023-03-15T19:56:48.756Z,99330.84
2023-03-15T19:59:15.399Z,99319.63
2023-03-15T20:01:42.324Z,99325.41
2023-03-15T20:04:09.092Z,99312.03
2023-03-15T20:06:35.836Z,99303.88
2023-03-15T20:09:05.291Z,99314.63
2023-03-15T20:11:31.966Z,99312.72
2023-03-15T20:13:58.626Z,99317.59
2023-03-15T20:16:25.314Z,99301.16
2023-03-15T20:18:52.000Z,99308.38
2023-03-15T20:21:19.866Z,99294.53
2023-03-15T20:23:47.921Z,99294.91
2023-03-15T20:26:17.599Z,99288.63
2023-03-15T20:28:44.942Z,99287.56
2023-03-15T20:31:15.645Z,99289.69
2023-03-15T20:33:43.390Z,99284.84
2023-03-15T20:36:11.217Z,99275.59
2023-03-15T20:38:38.094Z,99276.81
2023-03-15T20:41:06.458Z,99277.41
2023-03-15T20:43:33.732Z,99264.16
2023-03-15T20:46:02.411Z,99270.28
2023-03-15T20:48:35.101Z,99271.38
2023-03-15T20:51:05.876Z,99260.84
2023-03-15T20:53:34.355Z,99260.03
2023-03-15T20:56:01.340Z,99256.69
2023-03-15T20:58:28.358Z,99252.22
2023-03-15T21:01:08.750Z,99252.56
2023-03-15T21:03:36.691Z,99244.78
2023-03-15T21:06:05.421Z,99248.31
2023-03-15T21:08:33.453Z,99246.66
2023-03-15T21:11:01.020Z,99248.56
2023-03-15T21:13:28.053Z,99245.25
2023-03-15T21:15:54.858Z,99254.59
2023-03-15T21:18:23.743Z,99247.16
2023-03-15T21:21:00.958Z,99239.00
2023-03-15T21:23:31.243Z,99235.81
2023-03-15T21:25:59.602Z,99235.81
2023-03-15T21:28:26.365Z,99241.59
2023-03-15T21:30:54.181Z,99238.88
2023-03-15T21:33:23.114Z,99234.84
2023-03-15T21:35:50.471Z,99225.63
2023-03-15T21:38:17.680Z,99221.84
2023-03-15T21:40:46.613Z,99221.00
2023-03-15T21:43:16.498Z,99218.28
2023-03-15T21:45:43.377Z,99210.94
2023-03-15T21:48:11.896Z,99208.00
2023-03-15T21:50:38.660Z,99198.78
2023-03-15T21:53:05.331Z,99199.34
2023-03-15T21:55:33.826Z,99199.13
2023-03-15T21:58:01.954Z,99198.66
2023-03-15T22:00:30.057Z,99191.91
2023-03-15T22:02:57.182Z,99188.09
2023-03-15T22:05:24.810Z,99184.34
2023-03-15T22:07:51.539Z,99177.81
2023-03-15T22:10:19.856Z,99172.94
2023-03-15T22:12:46.552Z,99169.16
2023-03-15T22:15:14.025Z,99168.94
2023-03-15T22:17:40.668Z,99161.94
2023-03-15T22:20:09.593Z,99158.16
2023-03-15T22:22:36.341Z,99159.13
2023-03-15T22:25:03.578Z,99144.44
2023-03-15T22:27:30.229Z,99142.06
2023-03-15T22:29:56.858Z,99138.34
2023-03-15T22:32:23.522Z,99141.94
2023-03-15T22:34:50.152Z,99132.69
2023-03-15T22:37:16.919Z,99136.81
2023-03-15T22:39:43.626Z,99132.19
2023-03-15T22:42:10.476Z,99123.78
2023-03-15T22:44:37.089Z,99128.41
2023-03-15T22:47:03.732Z,99118.09
2023-03-15T22:49:30.465Z,99114.91
2023-03-15T22:51:57.113Z,99114.91
2023-03-15T22:54:24.668Z,99111.69
2023-03-15T22:56:51.512Z,99102.44
2023-03-15T22:59:18.135Z,99101.94
2023-03-15T23:01:44.882Z,99098.66
2023-03-15T23:04:11.605Z,99094.03
2023-03-15T23:06:38.231Z,99093.56
2023-03-15T23:09:06.571Z,99083.13
2023-03-15T23:11:33.461Z,99084.03
2023-03-15T23:14:00.092Z,99081.91
2023-03-15T23:16:26.742Z,99079.53
2023-03-15T23:18:53.393Z,99073.00
2023-03-15T23:21:19.993Z,99068.72
2023-03-15T23:23:46.666Z,99074.50
2023-03-15T23:26:15.281Z,99060.31
2023-03-15T23:28:42.239Z,99061.72
2023-03-15T23:31:09.236Z,99069.66
2023-03-15T23:33:35.976Z,99063.13
2023-03-15T23:36:05.851Z,99056.34
2023-03-15T23:38:35.969Z,99058.56
2023-03-15T23:41:02.816Z,99058.00
2023-03-15T23:43:29.451Z,99056.34
2023-03-15T23:45:57.852Z,99058.00
2023-03-15T23:48:25.520Z,99050.41
2023-03-15T23:50:57.346Z,99051.81
2023-03-15T23:53:25.576Z,99045.28
2023-03-15T23:55:52.643Z,99048.34
2023-03-15T23:58:19.401Z,99038.53
